sensor_id;sensor_type;location;lat;lon;timestamp;temperature;humidity
65972;SHT31;52726;48.852;9.152;2024-01-15T00:01:42;-2.88;86.16
65972;SHT31;52726;48.852;9.152;2024-01-15T00:04:07;-2.92;86.31
65972;SHT31;52726;48.852;9.152;2024-01-15T00:06:32;-2.99;86.35
65972;SHT31;52726;48.852;9.152;2024-01-15T00:08:58;-3.04;86.50
65972;SHT31;52726;48.852;9.152;2024-01-15T00:11:24;-3.06;86.45
65972;SHT31;52726;48.852;9.152;2024-01-15T00:13:52;-3.11;86.76
65972;SHT31;52726;48.852;9.152;2024-01-15T00:16:17;-3.19;86.79
65972;SHT31;52726;48.852;9.152;2024-01-15T00:18:43;-3.22;87.01
65972;SHT31;52726;48.852;9.152;2024-01-15T00:21:08;-3.25;87.09
65972;SHT31;52726;48.852;9.152;2024-01-15T00:23:33;-3.31;87.22
65972;SHT31;52726;48.852;9.152;2024-01-15T00:25:59;-3.36;87.43
65972;SHT31;52726;48.852;9.152;2024-01-15T00:28:24;-3.39;87.69
65972;SHT31;52726;48.852;9.152;2024-01-15T00:30:49;-3.42;87.98
65972;SHT31;52726;48.852;9.152;2024-01-15T00:33:15;-3.47;88.09
65972;SHT31;52726;48.852;9.152;2024-01-15T00:35:40;-3.50;88.45
65972;SHT31;52726;48.852;9.152;2024-01-15T00:38:06;-3.52;88.43
65972;SHT31;52726;48.852;9.152;2024-01-15T00:40:31;-3.52;88.65
65972;SHT31;52726;48.852;9.152;2024-01-15T00:42:57;-3.52;88.85
65972;SHT31;52726;48.852;9.152;2024-01-15T00:45:22;-3.50;88.95
65972;SHT31;52726;48.852;9.152;2024-01-15T00:47:48;-3.47;88.78
65972;SHT31;52726;48.852;9.152;2024-01-15T00:50:13;-3.49;88.82
65972;SHT31;52726;48.852;9.152;2024-01-15T00:52:38;-3.50;89.08
65972;SHT31;52726;48.852;9.152;2024-01-15T00:55:04;-3.46;89.08
65972;SHT31;52726;48.852;9.152;2024-01-15T00:57:30;-3.42;88.99
65972;SHT31;52726;48.852;9.152;2024-01-15T00:59:55;-3.36;89.17
65972;SHT31;52726;48.852;9.152;2024-01-15T01:02:20;-3.29;89.23
65972;SHT31;52726;48.852;9.152;2024-01-15T01:04:46;-3.23;89.41
65972;SHT31;52726;48.852;9.152;2024-01-15T01:07:11;-3.11;89.18
65972;SHT31;52726;48.852;9.152;2024-01-15T01:09:36;-3.01;89.22
65972;SHT31;52726;48.852;9.152;2024-01-15T01:12:02;-2.89;88.95
65972;SHT31;52726;48.852;9.152;2024-01-15T01:14:27;-2.84;88.84
65972;SHT31;52726;48.852;9.152;2024-01-15T01:16:53;-2.73;88.81
65972;SHT31;52726;48.852;9.152;2024-01-15T01:19:18;-2.68;88.59
65972;SHT31;52726;48.852;9.152;2024-01-15T01:21:43;-2.61;88.35
65972;SHT31;52726;48.852;9.152;2024-01-15T01:24:09;-2.57;88.24
65972;SHT31;52726;48.852;9.152;2024-01-15T01:26:34;-2.53;88.23
65972;SHT31;52726;48.852;9.152;2024-01-15T01:29:00;-2.46;88.17
65972;SHT31;52726;48.852;9.152;2024-01-15T01:31:25;-2.47;88.12
65972;SHT31;52726;48.852;9.152;2024-01-15T01:33:50;-2.42;88.11
65972;SHT31;52726;48.852;9.152;2024-01-15T01:36:16;-2.37;88.13
65972;SHT31;52726;48.852;9.152;2024-01-15T01:38:41;-2.35;88.15
65972;SHT31;52726;48.852;9.152;2024-01-15T01:41:07;-2.32;88.14
65972;SHT31;52726;48.852;9.152;2024-01-15T01:43:33;-2.30;88.05
65972;SHT31;52726;48.852;9.152;2024-01-15T01:46:00;-2.28;88.00
65972;SHT31;52726;48.852;9.152;2024-01-15T01:48:26;-2.26;88.14
65972;SHT31;52726;48.852;9.152;2024-01-15T01:50:57;-2.28;88.20
65972;SHT31;52726;48.852;9.152;2024-01-15T01:53:33;-2.23;88.20
65972;SHT31;52726;48.852;9.152;2024-01-15T01:56:00;-2.21;88.21
65972;SHT31;52726;48.852;9.152;2024-01-15T01:58:27;-2.22;88.18
65972;SHT31;52726;48.852;9.152;2024-01-15T02:00:53;-2.15;88.07
65972;SHT31;52726;48.852;9.152;2024-01-15T02:03:19;-2.15;87.90
65972;SHT31;52726;48.852;9.152;2024-01-15T02:05:46;-2.15;87.87
65972;SHT31;52726;48.852;9.152;2024-01-15T02:08:13;-2.06;87.56
65972;SHT31;52726;48.852;9.152;2024-01-15T02:10:39;-2.05;87.36
65972;SHT31;52726;48.852;9.152;2024-01-15T02:13:04;-2.05;87.27
65972;SHT31;52726;48.852;9.152;2024-01-15T02:15:30;-2.05;87.25
65972;SHT31;52726;48.852;9.152;2024-01-15T02:18:05;-2.03;87.15
65972;SHT31;52726;48.852;9.152;2024-01-15T02:20:32;-2.06;87.19
65972;SHT31;52726;48.852;9.152;2024-01-15T02:23:16;-2.06;87.20
65972;SHT31;52726;48.852;9.152;2024-01-15T02:25:43;-2.05;87.19
65972;SHT31;52726;48.852;9.152;2024-01-15T02:28:14;-2.02;87.21
65972;SHT31;52726;48.852;9.152;2024-01-15T02:30:40;-2.02;87.08
65972;SHT31;52726;48.852;9.152;2024-01-15T02:33:07;-2.02;86.97
65972;SHT31;52726;48.852;9.152;2024-01-15T02:35:33;-2.10;87.01
65972;SHT31;52726;48.852;9.152;2024-01-15T02:37:58;-2.06;87.19
65972;SHT31;52726;48.852;9.152;2024-01-15T02:40:24;-2.10;87.13
65972;SHT31;52726;48.852;9.152;2024-01-15T02:42:49;-2.15;87.30
65972;SHT31;52726;48.852;9.152;2024-01-15T02:45:15;-2.12;87.33
65972;SHT31;52726;48.852;9.152;2024-01-15T02:47:40;-2.19;87.39
65972;SHT31;52726;48.852;9.152;2024-01-15T02:50:06;-2.19;87.43
65972;SHT31;52726;48.852;9.152;2024-01-15T02:52:31;-2.18;87.33
65972;SHT31;52726;48.852;9.152;2024-01-15T02:54:57;-2.22;87.44
65972;SHT31;52726;48.852;9.152;2024-01-15T02:57:22;-2.29;87.47
65972;SHT31;52726;48.852;9.152;2024-01-15T02:59:48;-2.30;87.53
65972;SHT31;52726;48.852;9.152;2024-01-15T03:02:13;-2.32;87.71
65972;SHT31;52726;48.852;9.152;2024-01-15T03:04:43;-2.32;87.59
65972;SHT31;52726;48.852;9.152;2024-01-15T03:07:08;-2.35;87.69
65972;SHT31;52726;48.852;9.152;2024-01-15T03:09:34;-2.32;87.62
65972;SHT31;52726;48.852;9.152;2024-01-15T03:11:59;-2.30;87.49
65972;SHT31;52726;48.852;9.152;2024-01-15T03:14:24;-2.37;87.60
65972;SHT31;52726;48.852;9.152;2024-01-15T03:16:51;-2.36;87.71
65972;SHT31;52726;48.852;9.152;2024-01-15T03:19:16;-2.37;87.88
65972;SHT31;52726;48.852;9.152;2024-01-15T03:21:42;-2.30;87.71
65972;SHT31;52726;48.852;9.152;2024-01-15T03:24:07;-2.28;87.62
65972;SHT31;52726;48.852;9.152;2024-01-15T03:26:32;-2.30;87.73
65972;SHT31;52726;48.852;9.152;2024-01-15T03:28:58;-2.29;87.85
65972;SHT31;52726;48.852;9.152;2024-01-15T03:31:23;-2.32;87.62
65972;SHT31;52726;48.852;9.152;2024-01-15T03:33:48;-2.30;87.76
65972;SHT31;52726;48.852;9.152;2024-01-15T03:36:14;-2.21;87.59
65972;SHT31;52726;48.852;9.152;2024-01-15T03:38:42;-2.26;87.59
65972;SHT31;52726;48.852;9.152;2024-01-15T03:41:08;-2.19;87.83
65972;SHT31;52726;48.852;9.152;2024-01-15T03:43:33;-2.10;87.63
65972;SHT31;52726;48.852;9.152;2024-01-15T03:45:59;-1.85;86.75
65972;SHT31;52726;48.852;9.152;2024-01-15T03:48:24;-1.78;86.48
65972;SHT31;52726;48.852;9.152;2024-01-15T03:50:49;-1.67;86.42
65972;SHT31;52726;48.852;9.152;2024-01-15T03:53:15;-1.54;85.68
65972;SHT31;52726;48.852;9.152;2024-01-15T03:55:41;-1.50;85.53
65972;SHT31;52726;48.852;9.152;2024-01-15T03:58:06;-1.39;85.14
65972;SHT31;52726;48.852;9.152;2024-01-15T04:00:32;-1.39;85.07
65972;SHT31;52726;48.852;9.152;2024-01-15T04:02:57;-1.36;85.11
65972;SHT31;52726;48.852;9.152;2024-01-15T04:05:23;-1.32;84.92
65972;SHT31;52726;48.852;9.152;2024-01-15T04:07:48;-1.20;84.36
65972;SHT31;52726;48.852;9.152;2024-01-15T04:10:13;-1.17;84.73
65972;SHT31;52726;48.852;9.152;2024-01-15T04:12:39;-1.17;84.51
65972;SHT31;52726;48.852;9.152;2024-01-15T04:15:04;-1.13;84.47
65972;SHT31;52726;48.852;9.152;2024-01-15T04:17:30;-1.13;84.57
65972;SHT31;52726;48.852;9.152;2024-01-15T04:19:55;-1.16;84.67
65972;SHT31;52726;48.852;9.152;2024-01-15T04:22:20;-1.11;84.21
65972;SHT31;52726;48.852;9.152;2024-01-15T04:24:46;-0.95;83.30
65972;SHT31;52726;48.852;9.152;2024-01-15T04:27:11;-0.96;83.57
65972;SHT31;52726;48.852;9.152;2024-01-15T04:29:39;-0.94;83.27
65972;SHT31;52726;48.852;9.152;2024-01-15T04:32:05;-0.94;83.33
65972;SHT31;52726;48.852;9.152;2024-01-15T04:34:31;-0.92;83.51
65972;SHT31;52726;48.852;9.152;2024-01-15T04:36:56;-0.96;83.71
65972;SHT31;52726;48.852;9.152;2024-01-15T04:39:22;-0.94;83.61
65972;SHT31;52726;48.852;9.152;2024-01-15T04:41:47;-0.94;83.60
65972;SHT31;52726;48.852;9.152;2024-01-15T04:44:13;-0.92;83.60
65972;SHT31;52726;48.852;9.152;2024-01-15T04:46:38;-0.91;83.25
65972;SHT31;52726;48.852;9.152;2024-01-15T04:49:04;-0.88;83.46
65972;SHT31;52726;48.852;9.152;2024-01-15T04:51:29;-0.88;83.32
65972;SHT31;52726;48.852;9.152;2024-01-15T04:53:54;-0.94;83.76
65972;SHT31;52726;48.852;9.152;2024-01-15T04:56:20;-0.85;83.06
65972;SHT31;52726;48.852;9.152;2024-01-15T04:58:45;-0.88;83.31
65972;SHT31;52726;48.852;9.152;2024-01-15T05:01:10;-0.81;82.82
65972;SHT31;52726;48.852;9.152;2024-01-15T05:03:36;-0.78;82.77
65972;SHT31;52726;48.852;9.152;2024-01-15T05:06:01;-0.74;82.34
65972;SHT31;52726;48.852;9.152;2024-01-15T05:08:27;-0.68;82.31
65972;SHT31;52726;48.852;9.152;2024-01-15T05:10:52;-0.73;82.41
65972;SHT31;52726;48.852;9.152;2024-01-15T05:13:17;-0.71;82.48
65972;SHT31;52726;48.852;9.152;2024-01-15T05:15:43;-0.70;82.36
65972;SHT31;52726;48.852;9.152;2024-01-15T05:18:08;-0.68;82.17
65972;SHT31;52726;48.852;9.152;2024-01-15T05:20:33;-0.67;82.16
65972;SHT31;52726;48.852;9.152;2024-01-15T05:22:59;-0.70;82.42
65972;SHT31;52726;48.852;9.152;2024-01-15T05:25:24;-0.70;82.58
65972;SHT31;52726;48.852;9.152;2024-01-15T05:27:50;-0.73;82.58
65972;SHT31;52726;48.852;9.152;2024-01-15T05:30:15;-0.68;82.36
65972;SHT31;52726;48.852;9.152;2024-01-15T05:32:41;-0.61;82.09
65972;SHT31;52726;48.852;9.152;2024-01-15T05:35:07;-0.64;82.35
65972;SHT31;52726;48.852;9.152;2024-01-15T05:37:32;-0.63;82.29
65972;SHT31;52726;48.852;9.152;2024-01-15T05:39:57;-0.63;82.39
65972;SHT31;52726;48.852;9.152;2024-01-15T05:45:47;-0.63;82.47
65972;SHT31;52726;48.852;9.152;2024-01-15T05:48:13;-0.58;82.28
65972;SHT31;52726;48.852;9.152;2024-01-15T05:50:38;-0.57;81.98
65972;SHT31;52726;48.852;9.152;2024-01-15T05:53:04;-0.60;82.32
65972;SHT31;52726;48.852;9.152;2024-01-15T05:55:30;-0.61;82.11
65972;SHT31;52726;48.852;9.152;2024-01-15T05:57:55;-0.61;82.40
65972;SHT31;52726;48.852;9.152;2024-01-15T06:00:21;-0.64;82.60
65972;SHT31;52726;48.852;9.152;2024-01-15T06:02:46;-0.61;82.41
65972;SHT31;52726;48.852;9.152;2024-01-15T06:05:12;-0.60;82.21
65972;SHT31;52726;48.852;9.152;2024-01-15T06:07:37;-0.58;82.17
65972;SHT31;52726;48.852;9.152;2024-01-15T06:10:03;-0.58;82.14
65972;SHT31;52726;48.852;9.152;2024-01-15T06:12:30;-0.54;81.55
65972;SHT31;52726;48.852;9.152;2024-01-15T06:14:55;-0.52;81.33
65972;SHT31;52726;48.852;9.152;2024-01-15T06:17:20;-0.49;81.75
65972;SHT31;52726;48.852;9.152;2024-01-15T06:19:46;-0.50;81.66
65972;SHT31;52726;48.852;9.152;2024-01-15T06:22:11;-0.49;81.21
65972;SHT31;52726;48.852;9.152;2024-01-15T06:24:36;-0.50;81.56
65972;SHT31;52726;48.852;9.152;2024-01-15T06:27:02;-0.50;81.56
65972;SHT31;52726;48.852;9.152;2024-01-15T06:29:27;-0.49;81.37
65972;SHT31;52726;48.852;9.152;2024-01-15T06:31:53;-0.44;81.24
65972;SHT31;52726;48.852;9.152;2024-01-15T06:34:18;-0.49;81.33
65972;SHT31;52726;48.852;9.152;2024-01-15T06:36:44;-0.44;81.05
65972;SHT31;52726;48.852;9.152;2024-01-15T06:39:10;-0.41;80.84
65972;SHT31;52726;48.852;9.152;2024-01-15T06:41:36;-0.41;80.69
65972;SHT31;52726;48.852;9.152;2024-01-15T06:44:12;-0.41;80.84
65972;SHT31;52726;48.852;9.152;2024-01-15T06:46:45;-0.44;81.08
65972;SHT31;52726;48.852;9.152;2024-01-15T06:49:10;-0.47;81.08
65972;SHT31;52726;48.852;9.152;2024-01-15T06:51:36;-0.47;81.03
65972;SHT31;52726;48.852;9.152;2024-01-15T06:54:02;-0.43;81.05
65972;SHT31;52726;48.852;9.152;2024-01-15T06:56:27;-0.44;81.01
65972;SHT31;52726;48.852;9.152;2024-01-15T06:58:52;-0.46;81.33
65972;SHT31;52726;48.852;9.152;2024-01-15T07:01:18;-0.49;81.33
65972;SHT31;52726;48.852;9.152;2024-01-15T07:03:43;-0.46;81.34
65972;SHT31;52726;48.852;9.152;2024-01-15T07:06:08;-0.50;81.36
65972;SHT31;52726;48.852;9.152;2024-01-15T07:08:34;-0.47;81.08
65972;SHT31;52726;48.852;9.152;2024-01-15T07:10:59;-0.49;81.14
65972;SHT31;52726;48.852;9.152;2024-01-15T07:13:24;-0.49;81.37
65972;SHT31;52726;48.852;9.152;2024-01-15T07:15:50;-0.52;81.56
65972;SHT31;52726;48.852;9.152;2024-01-15T07:18:15;-0.52;81.53
65972;SHT31;52726;48.852;9.152;2024-01-15T07:20:41;-0.50;81.61
65972;SHT31;52726;48.852;9.152;2024-01-15T07:23:07;-0.52;81.49
65972;SHT31;52726;48.852;9.152;2024-01-15T07:25:32;-0.50;81.86
65972;SHT31;52726;48.852;9.152;2024-01-15T07:27:58;-0.52;81.82
65972;SHT31;52726;48.852;9.152;2024-01-15T07:30:23;-0.52;81.64
65972;SHT31;52726;48.852;9.152;2024-01-15T07:32:48;-0.49;81.69
65972;SHT31;52726;48.852;9.152;2024-01-15T07:35:14;-0.47;81.59
65972;SHT31;52726;48.852;9.152;2024-01-15T07:37:40;-0.52;81.88
65972;SHT31;52726;48.852;9.152;2024-01-15T07:40:06;-0.47;81.77
65972;SHT31;52726;48.852;9.152;2024-01-15T07:42:34;-0.47;81.93
65972;SHT31;52726;48.852;9.152;2024-01-15T07:44:59;-0.49;81.99
65972;SHT31;52726;48.852;9.152;2024-01-15T07:47:25;-0.46;81.45
65972;SHT31;52726;48.852;9.152;2024-01-15T07:49:50;-0.38;80.65
65972;SHT31;52726;48.852;9.152;2024-01-15T07:52:15;-0.38;81.06
65972;SHT31;52726;48.852;9.152;2024-01-15T07:54:41;-0.38;80.61
65972;SHT31;52726;48.852;9.152;2024-01-15T07:57:06;-0.37;80.41
65972;SHT31;52726;48.852;9.152;2024-01-15T07:59:31;-0.32;80.02
65972;SHT31;52726;48.852;9.152;2024-01-15T08:01:59;-0.29;79.53
65972;SHT31;52726;48.852;9.152;2024-01-15T08:04:24;-0.25;79.36
65972;SHT31;52726;48.852;9.152;2024-01-15T08:06:50;-0.23;79.34
65972;SHT31;52726;48.852;9.152;2024-01-15T08:09:16;-0.22;79.63
65972;SHT31;52726;48.852;9.152;2024-01-15T08:11:42;-0.22;79.97
65972;SHT31;52726;48.852;9.152;2024-01-15T08:14:08;-0.22;79.25
65972;SHT31;52726;48.852;9.152;2024-01-15T08:16:34;-0.17;79.20
65972;SHT31;52726;48.852;9.152;2024-01-15T08:19:00;-0.16;79.40
65972;SHT31;52726;48.852;9.152;2024-01-15T08:21:25;-0.12;79.14
65972;SHT31;52726;48.852;9.152;2024-01-15T08:23:52;-0.09;79.10
65972;SHT31;52726;48.852;9.152;2024-01-15T08:26:17;-0.09;78.78
65972;SHT31;52726;48.852;9.152;2024-01-15T08:28:43;-0.08;78.58
65972;SHT31;52726;48.852;9.152;2024-01-15T08:31:08;-0.03;78.28
65972;SHT31;52726;48.852;9.152;2024-01-15T08:33:34;-0.02;78.33
65972;SHT31;52726;48.852;9.152;2024-01-15T08:36:01;0.02;78.07
65972;SHT31;52726;48.852;9.152;2024-01-15T08:38:26;0.04;77.99
65972;SHT31;52726;48.852;9.152;2024-01-15T08:40:51;0.09;77.81
65972;SHT31;52726;48.852;9.152;2024-01-15T08:43:18;0.12;77.67
65972;SHT31;52726;48.852;9.152;2024-01-15T08:45:44;0.18;77.31
65972;SHT31;52726;48.852;9.152;2024-01-15T08:48:10;0.21;77.18
65972;SHT31;52726;48.852;9.152;2024-01-15T08:50:35;0.25;77.29
65972;SHT31;52726;48.852;9.152;2024-01-15T08:53:00;0.23;76.77
65972;SHT31;52726;48.852;9.152;2024-01-15T08:55:26;0.32;76.87
65972;SHT31;52726;48.852;9.152;2024-01-15T08:57:51;0.33;76.53
65972;SHT31;52726;48.852;9.152;2024-01-15T09:00:17;0.38;75.98
65972;SHT31;52726;48.852;9.152;2024-01-15T09:02:44;0.40;76.37
65972;SHT31;52726;48.852;9.152;2024-01-15T09:05:09;0.43;76.17
65972;SHT31;52726;48.852;9.152;2024-01-15T09:07:35;0.45;76.11
65972;SHT31;52726;48.852;9.152;2024-01-15T09:10:00;0.43;76.00
65972;SHT31;52726;48.852;9.152;2024-01-15T09:12:26;0.49;76.07
65972;SHT31;52726;48.852;9.152;2024-01-15T09:14:52;0.53;76.16
65972;SHT31;52726;48.852;9.152;2024-01-15T09:17:19;0.54;75.77
65972;SHT31;52726;48.852;9.152;2024-01-15T09:19:44;0.54;75.91
65972;SHT31;52726;48.852;9.152;2024-01-15T09:22:12;0.52;76.15
65972;SHT31;52726;48.852;9.152;2024-01-15T09:24:40;0.53;76.42
65972;SHT31;52726;48.852;9.152;2024-01-15T09:27:05;0.59;76.60
65972;SHT31;52726;48.852;9.152;2024-01-15T09:29:31;0.64;76.65
65972;SHT31;52726;48.852;9.152;2024-01-15T09:31:57;0.67;76.28
65972;SHT31;52726;48.852;9.152;2024-01-15T09:34:22;0.69;76.62
65972;SHT31;52726;48.852;9.152;2024-01-15T09:36:47;0.74;76.80
65972;SHT31;52726;48.852;9.152;2024-01-15T09:39:14;0.76;76.52
65972;SHT31;52726;48.852;9.152;2024-01-15T09:41:41;0.77;76.14
65972;SHT31;52726;48.852;9.152;2024-01-15T09:44:07;0.77;75.86
65972;SHT31;52726;48.852;9.152;2024-01-15T09:46:34;0.78;76.20
65972;SHT31;52726;48.852;9.152;2024-01-15T09:49:00;0.80;75.91
65972;SHT31;52726;48.852;9.152;2024-01-15T09:51:29;0.84;75.69
65972;SHT31;52726;48.852;9.152;2024-01-15T09:53:57;0.88;75.95
65972;SHT31;52726;48.852;9.152;2024-01-15T09:56:23;0.87;75.27
65972;SHT31;52726;48.852;9.152;2024-01-15T09:58:48;0.92;75.39
65972;SHT31;52726;48.852;9.152;2024-01-15T10:01:16;0.92;75.25
65972;SHT31;52726;48.852;9.152;2024-01-15T10:03:42;0.92;75.67
65972;SHT31;52726;48.852;9.152;2024-01-15T10:06:08;0.91;75.14
65972;SHT31;52726;48.852;9.152;2024-01-15T10:08:36;0.97;75.20
65972;SHT31;52726;48.852;9.152;2024-01-15T10:11:02;0.98;76.02
65972;SHT31;52726;48.852;9.152;2024-01-15T10:13:30;1.01;75.73
65972;SHT31;52726;48.852;9.152;2024-01-15T10:15:55;0.97;75.94
65972;SHT31;52726;48.852;9.152;2024-01-15T10:18:21;0.99;75.72
65972;SHT31;52726;48.852;9.152;2024-01-15T10:20:47;1.01;75.62
65972;SHT31;52726;48.852;9.152;2024-01-15T10:23:16;1.04;75.58
65972;SHT31;52726;48.852;9.152;2024-01-15T10:25:42;0.99;75.37
65972;SHT31;52726;48.852;9.152;2024-01-15T10:28:08;1.01;74.96
65972;SHT31;52726;48.852;9.152;2024-01-15T10:30:34;1.01;75.61
65972;SHT31;52726;48.852;9.152;2024-01-15T10:33:01;0.99;75.43
65972;SHT31;52726;48.852;9.152;2024-01-15T10:35:28;0.98;75.34
65972;SHT31;52726;48.852;9.152;2024-01-15T10:37:54;0.97;75.20
65972;SHT31;52726;48.852;9.152;2024-01-15T10:40:19;0.99;75.15
65972;SHT31;52726;48.852;9.152;2024-01-15T10:42:45;0.98;74.80
65972;SHT31;52726;48.852;9.152;2024-01-15T10:45:13;0.98;75.27
65972;SHT31;52726;48.852;9.152;2024-01-15T10:47:38;1.04;74.92
65972;SHT31;52726;48.852;9.152;2024-01-15T10:50:05;1.08;75.14
65972;SHT31;52726;48.852;9.152;2024-01-15T10:52:33;1.07;75.28
65972;SHT31;52726;48.852;9.152;2024-01-15T10:54:59;1.08;75.74
65972;SHT31;52726;48.852;9.152;2024-01-15T10:57:26;1.04;76.37
65972;SHT31;52726;48.852;9.152;2024-01-15T10:59:51;1.07;76.66
65972;SHT31;52726;48.852;9.152;2024-01-15T11:02:17;1.05;77.55
65972;SHT31;52726;48.852;9.152;2024-01-15T11:04:42;1.05;78.12
65972;SHT31;52726;48.852;9.152;2024-01-15T11:07:08;0.98;79.09
65972;SHT31;52726;48.852;9.152;2024-01-15T11:09:34;0.94;79.14
65972;SHT31;52726;48.852;9.152;2024-01-15T11:12:13;0.89;79.15
65972;SHT31;52726;48.852;9.152;2024-01-15T11:14:46;0.85;80.46
65972;SHT31;52726;48.852;9.152;2024-01-15T11:17:12;0.74;82.22
65972;SHT31;52726;48.852;9.152;2024-01-15T11:22:38;0.61;84.04
65972;SHT31;52726;48.852;9.152;2024-01-15T11:25:03;0.57;85.26
65972;SHT31;52726;48.852;9.152;2024-01-15T11:30:11;0.66;85.03
65972;SHT31;52726;48.852;9.152;2024-01-15T11:32:37;0.73;84.95
65972;SHT31;52726;48.852;9.152;2024-01-15T11:35:07;0.63;84.96
65972;SHT31;52726;48.852;9.152;2024-01-15T11:42:48;0.70;84.84
65972;SHT31;52726;48.852;9.152;2024-01-15T11:45:19;0.70;84.96
65972;SHT31;52726;48.852;9.152;2024-01-15T11:48:10;0.64;85.53
65972;SHT31;52726;48.852;9.152;2024-01-15T11:50:40;0.63;85.95
65972;SHT31;52726;48.852;9.152;2024-01-15T11:53:27;0.57;85.78
65972;SHT31;52726;48.852;9.152;2024-01-15T11:55:58;0.56;85.26
65972;SHT31;52726;48.852;9.152;2024-01-15T11:58:24;0.57;85.57
65972;SHT31;52726;48.852;9.152;2024-01-15T12:00:51;0.53;85.79
65972;SHT31;52726;48.852;9.152;2024-01-15T12:03:20;0.46;86.68
65972;SHT31;52726;48.852;9.152;2024-01-15T12:05:45;0.46;87.34
65972;SHT31;52726;48.852;9.152;2024-01-15T12:08:11;0.45;88.24
65972;SHT31;52726;48.852;9.152;2024-01-15T12:10:40;0.40;88.58
65972;SHT31;52726;48.852;9.152;2024-01-15T12:13:12;0.35;88.62
65972;SHT31;52726;48.852;9.152;2024-01-15T12:15:38;0.33;88.57
65972;SHT31;52726;48.852;9.152;2024-01-15T12:18:07;0.30;88.34
65972;SHT31;52726;48.852;9.152;2024-01-15T12:20:33;0.32;88.71
65972;SHT31;52726;48.852;9.152;2024-01-15T12:22:59;0.42;88.72
65972;SHT31;52726;48.852;9.152;2024-01-15T12:25:25;0.43;88.55
65972;SHT31;52726;48.852;9.152;2024-01-15T12:27:54;0.42;89.04
65972;SHT31;52726;48.852;9.152;2024-01-15T12:30:20;0.36;89.67
65972;SHT31;52726;48.852;9.152;2024-01-15T12:32:45;0.38;90.42
65972;SHT31;52726;48.852;9.152;2024-01-15T12:35:12;0.33;90.85
65972;SHT31;52726;48.852;9.152;2024-01-15T12:37:42;0.33;90.83
65972;SHT31;52726;48.852;9.152;2024-01-15T12:40:08;0.33;90.95
65972;SHT31;52726;48.852;9.152;2024-01-15T12:42:39;0.30;91.04
65972;SHT31;52726;48.852;9.152;2024-01-15T12:45:06;0.35;90.83
65972;SHT31;52726;48.852;9.152;2024-01-15T12:47:32;0.35;91.18
65972;SHT31;52726;48.852;9.152;2024-01-15T12:49:58;0.40;91.29
65972;SHT31;52726;48.852;9.152;2024-01-15T12:52:26;0.45;91.32
65972;SHT31;52726;48.852;9.152;2024-01-15T12:54:52;0.46;91.26
65972;SHT31;52726;48.852;9.152;2024-01-15T12:57:17;0.40;90.98
65972;SHT31;52726;48.852;9.152;2024-01-15T12:59:46;0.38;91.26
65972;SHT31;52726;48.852;9.152;2024-01-15T13:02:15;0.40;91.35
65972;SHT31;52726;48.852;9.152;2024-01-15T13:04:41;0.36;91.24
65972;SHT31;52726;48.852;9.152;2024-01-15T13:07:07;0.36;91.38
65972;SHT31;52726;48.852;9.152;2024-01-15T13:09:33;0.35;91.56
65972;SHT31;52726;48.852;9.152;2024-01-15T13:11:59;0.30;91.50
65972;SHT31;52726;48.852;9.152;2024-01-15T13:14:24;0.26;91.82
65972;SHT31;52726;48.852;9.152;2024-01-15T13:16:50;0.25;91.92
65972;SHT31;52726;48.852;9.152;2024-01-15T13:19:15;0.25;91.75
65972;SHT31;52726;48.852;9.152;2024-01-15T13:21:40;0.28;91.84
65972;SHT31;52726;48.852;9.152;2024-01-15T13:24:06;0.29;91.82
65972;SHT31;52726;48.852;9.152;2024-01-15T13:26:32;0.25;91.67
65972;SHT31;52726;48.852;9.152;2024-01-15T13:29:03;0.26;91.86
65972;SHT31;52726;48.852;9.152;2024-01-15T13:31:29;0.26;92.08
65972;SHT31;52726;48.852;9.152;2024-01-15T13:33:54;0.25;91.86
65972;SHT31;52726;48.852;9.152;2024-01-15T13:36:21;0.26;92.10
65972;SHT31;52726;48.852;9.152;2024-01-15T13:38:51;0.32;92.10
65972;SHT31;52726;48.852;9.152;2024-01-15T13:41:17;0.32;91.99
65972;SHT31;52726;48.852;9.152;2024-01-15T13:44:00;0.32;91.87
65972;SHT31;52726;48.852;9.152;2024-01-15T13:46:26;0.30;91.45
65972;SHT31;52726;48.852;9.152;2024-01-15T13:48:52;0.33;90.81
65972;SHT31;52726;48.852;9.152;2024-01-15T13:51:18;0.33;90.03
65972;SHT31;52726;48.852;9.152;2024-01-15T13:53:43;0.38;89.57
65972;SHT31;52726;48.852;9.152;2024-01-15T13:56:08;0.42;89.09
65972;SHT31;52726;48.852;9.152;2024-01-15T13:58:35;0.49;88.03
65972;SHT31;52726;48.852;9.152;2024-01-15T14:01:01;0.50;87.96
65972;SHT31;52726;48.852;9.152;2024-01-15T14:03:28;0.53;88.00
65972;SHT31;52726;48.852;9.152;2024-01-15T14:05:54;0.52;87.72
65972;SHT31;52726;48.852;9.152;2024-01-15T14:08:20;0.56;87.60
65972;SHT31;52726;48.852;9.152;2024-01-15T14:10:45;0.56;87.73
65972;SHT31;52726;48.852;9.152;2024-01-15T14:13:11;0.52;87.89
65972;SHT31;52726;48.852;9.152;2024-01-15T14:15:36;0.50;87.70
65972;SHT31;52726;48.852;9.152;2024-01-15T14:18:02;0.50;87.87
65972;SHT31;52726;48.852;9.152;2024-01-15T14:20:27;0.48;87.81
65972;SHT31;52726;48.852;9.152;2024-01-15T14:22:53;0.45;88.29
65972;SHT31;52726;48.852;9.152;2024-01-15T14:25:20;0.39;89.23
65972;SHT31;52726;48.852;9.152;2024-01-15T14:27:45;0.33;89.45
65972;SHT31;52726;48.852;9.152;2024-01-15T14:30:11;0.32;89.11
65972;SHT31;52726;48.852;9.152;2024-01-15T14:32:38;0.32;89.35
65972;SHT31;52726;48.852;9.152;2024-01-15T14:35:04;0.29;88.85
65972;SHT31;52726;48.852;9.152;2024-01-15T14:37:30;0.25;88.97
65972;SHT31;52726;48.852;9.152;2024-01-15T14:39:56;0.21;89.36
65972;SHT31;52726;48.852;9.152;2024-01-15T14:42:21;0.18;89.28
65972;SHT31;52726;48.852;9.152;2024-01-15T14:44:47;0.06;89.86
65972;SHT31;52726;48.852;9.152;2024-01-15T14:47:12;0.05;90.42
65972;SHT31;52726;48.852;9.152;2024-01-15T14:49:37;0.02;90.90
65972;SHT31;52726;48.852;9.152;2024-01-15T14:52:03;-0.05;91.39
65972;SHT31;52726;48.852;9.152;2024-01-15T14:54:28;-0.09;91.94
65972;SHT31;52726;48.852;9.152;2024-01-15T14:56:54;-0.12;91.97
65972;SHT31;52726;48.852;9.152;2024-01-15T14:59:19;-0.12;91.42
65972;SHT31;52726;48.852;9.152;2024-01-15T15:01:45;-0.10;91.46
65972;SHT31;52726;48.852;9.152;2024-01-15T15:04:11;-0.12;90.97
65972;SHT31;52726;48.852;9.152;2024-01-15T15:06:36;-0.09;90.61
65972;SHT31;52726;48.852;9.152;2024-01-15T15:09:03;-0.09;90.35
65972;SHT31;52726;48.852;9.152;2024-01-15T15:11:34;-0.08;90.02
65972;SHT31;52726;48.852;9.152;2024-01-15T15:13:59;-0.06;89.13
65972;SHT31;52726;48.852;9.152;2024-01-15T15:16:25;-0.03;88.82
65972;SHT31;52726;48.852;9.152;2024-01-15T15:18:50;-0.01;88.52
65972;SHT31;52726;48.852;9.152;2024-01-15T15:21:16;-0.01;88.20
65972;SHT31;52726;48.852;9.152;2024-01-15T15:23:41;0.04;88.13
65972;SHT31;52726;48.852;9.152;2024-01-15T15:26:06;0.01;87.53
65972;SHT31;52726;48.852;9.152;2024-01-15T15:28:32;0.01;86.86
65972;SHT31;52726;48.852;9.152;2024-01-15T15:31:01;0.02;87.17
65972;SHT31;52726;48.852;9.152;2024-01-15T15:33:27;-0.01;86.68
65972;SHT31;52726;48.852;9.152;2024-01-15T15:35:52;0.01;86.81
65972;SHT31;52726;48.852;9.152;2024-01-15T15:38:18;-0.03;86.54
65972;SHT31;52726;48.852;9.152;2024-01-15T15:40:43;-0.01;86.55
65972;SHT31;52726;48.852;9.152;2024-01-15T15:43:08;-0.02;86.37
65972;SHT31;52726;48.852;9.152;2024-01-15T15:45:34;-0.02;86.35